Time;durP1;ratioP1;P1;durP2;ratioP2;P2;SDS_P1;SDS_P2;PMS_P1;PMS_P2;Temp;Humidity;BMP_temperature;BMP_pressure;BME280_temperature;BME280_humidity;BME280_pressure;Samples;Min_cycle;Max_cycle;Signal;HPM_P1;HPM_P2
2023/05/03 00:02:27;;;;;;;9.75;4.93;;;22.80;53.50;;;;;;7642360;22;80749;-58
2023/05/03 00:05:28;;;;;;;8.43;5.63;;;22.80;53.30;;;;;;7640423;22;80402;-58
2023/05/03 00:08:28;;;;;;;7.57;5.32;;;22.80;53.40;;;;;;7642667;22;81244;-56
2023/05/03 00:11:31;;;;;;;6.72;4.97;;;22.80;53.40;;;;;;7636667;22;80624;-55
2023/05/03 00:14:32;;;;;;;10.35;5.55;;;22.80;53.40;;;;;;7642342;22;81392;-58
2023/05/03 00:17:32;;;;;;;7.15;4.80;;;22.80;53.40;;;;;;7641651;22;80851;-58
2023/05/03 00:20:33;;;;;;;6.82;4.93;;;22.80;53.50;;;;;;7641197;22;80513;-58
2023/05/03 00:23:33;;;;;;;8.48;5.35;;;22.80;53.40;;;;;;7641970;22;80779;-57
2023/05/03 00:26:34;;;;;;;7.55;5.68;;;22.80;53.40;;;;;;7642142;22;80816;-57
2023/05/03 00:29:35;;;;;;;8.25;5.32;;;22.80;53.50;;;;;;7614999;22;83355;-58
2023/05/03 00:32:35;;;;;;;8.93;5.80;;;22.80;53.50;;;;;;7614631;22;82198;-59
2023/05/03 00:35:36;;;;;;;7.35;5.10;;;22.80;53.50;;;;;;7642943;22;80821;-57
2023/05/03 00:38:36;;;;;;;8.00;5.75;;;22.80;53.50;;;;;;7641737;22;80416;-56
2023/05/03 00:41:37;;;;;;;12.88;5.18;;;22.80;53.50;;;;;;7641252;22;81059;-58
2023/05/03 00:44:37;;;;;;;8.45;4.70;;;22.80;53.50;;;;;;7640549;22;81584;-57
2023/05/03 00:47:38;;;;;;;8.40;5.43;;;22.80;53.50;;;;;;7615983;22;81786;-56
2023/05/03 00:50:38;;;;;;;8.10;5.30;;;22.70;53.50;;;;;;7641195;22;80406;-69
2023/05/03 00:53:39;;;;;;;8.65;5.60;;;22.70;53.50;;;;;;7616039;22;83691;-67
2023/05/03 00:56:39;;;;;;;10.48;5.78;;;22.70;53.50;;;;;;7641246;22;81115;-67
2023/05/03 00:59:40;;;;;;;11.15;5.72;;;22.70;53.50;;;;;;7641762;22;80453;-68
2023/05/03 01:02:40;;;;;;;9.07;5.63;;;22.70;53.50;;;;;;7614612;22;83787;-66
2023/05/03 01:05:41;;;;;;;12.63;5.60;;;22.70;53.50;;;;;;7642250;22;80517;-67
2023/05/03 01:08:42;;;;;;;8.05;6.25;;;22.70;53.50;;;;;;7641442;22;80403;-60
2023/05/03 01:11:43;;;;;;;7.97;5.47;;;22.70;53.50;;;;;;7641829;22;80722;-62
2023/05/03 01:14:43;;;;;;;8.38;5.82;;;22.70;53.50;;;;;;7640279;22;87170;-59
2023/05/03 01:17:45;;;;;;;10.63;6.20;;;22.70;53.50;;;;;;7643164;22;81034;-59
2023/05/03 01:20:46;;;;;;;9.05;5.90;;;22.70;53.60;;;;;;7640629;22;80176;-59
2023/05/03 01:23:47;;;;;;;7.95;5.35;;;22.70;53.60;;;;;;7615604;22;81747;-59
2023/05/03 01:26:48;;;;;;;8.73;5.80;;;22.70;53.50;;;;;;7615911;22;83251;-61
2023/05/03 01:29:49;;;;;;;9.57;6.03;;;22.70;53.50;;;;;;7616355;22;82963;-60
2023/05/03 01:32:50;;;;;;;9.23;5.95;;;22.70;53.50;;;;;;7644334;22;80878;-59
2023/05/03 01:35:50;;;;;;;9.57;6.15;;;22.70;53.50;;;;;;7643652;22;80638;-60
2023/05/03 01:38:51;;;;;;;10.05;6.13;;;22.70;53.50;;;;;;7643279;22;80306;-61
2023/05/03 01:41:51;;;;;;;9.63;6.57;;;22.70;53.40;;;;;;7643111;22;81061;-61
2023/05/03 01:44:53;;;;;;;10.70;6.28;;;22.70;53.40;;;;;;7616054;22;82956;-59
2023/05/03 01:47:53;;;;;;;8.40;6.07;;;22.70;53.40;;;;;;7617395;22;81712;-60
2023/05/03 01:50:54;;;;;;;12.18;7.05;;;22.70;53.40;;;;;;7644049;22;81657;-60
2023/05/03 01:53:54;;;;;;;9.43;6.20;;;22.70;53.30;;;;;;7643474;22;80784;-59
2023/05/03 01:56:55;;;;;;;11.35;6.93;;;22.70;53.30;;;;;;7643826;22;79942;-59
2023/05/03 01:59:55;;;;;;;8.60;6.13;;;22.70;53.30;;;;;;7616182;22;81544;-57
2023/05/03 02:02:57;;;;;;;8.93;6.18;;;22.70;53.40;;;;;;7616604;22;83302;-57
2023/05/03 02:05:57;;;;;;;8.07;6.60;;;22.70;53.20;;;;;;7642322;22;80438;-57
2023/05/03 02:08:58;;;;;;;8.55;6.60;;;22.70;53.20;;;;;;7615986;22;83202;-57
2023/05/03 02:11:58;;;;;;;9.40;5.90;;;22.70;53.10;;;;;;7643840;22;81063;-57
2023/05/03 02:14:59;;;;;;;7.47;6.07;;;22.70;53.10;;;;;;7616501;22;83460;-55
2023/05/03 02:18:01;;;;;;;9.20;6.38;;;22.70;53.20;;;;;;7642544;22;82373;-58
2023/05/03 02:21:01;;;;;;;11.13;6.97;;;22.70;53.10;;;;;;7643382;22;80398;-57
2023/05/03 02:24:02;;;;;;;9.68;6.25;;;22.70;53.10;;;;;;7642715;22;80644;-67
2023/05/03 02:27:03;;;;;;;11.23;6.22;;;22.60;53.10;;;;;;7643227;22;80396;-66
2023/05/03 02:30:04;;;;;;;9.15;6.35;;;22.60;53.10;;;;;;7616269;22;83171;-67
2023/05/03 02:33:11;;;;;;;9.77;6.68;;;22.60;53.10;;;;;;7617264;22;83620;-66
2023/05/03 02:36:13;;;;;;;8.95;6.07;;;22.60;53.10;;;;;;7615222;22;83142;-64
2023/05/03 02:39:13;;;;;;;10.20;6.38;;;22.70;53.10;;;;;;7616129;22;81445;-64
2023/05/03 02:42:15;;;;;;;8.63;6.07;;;22.70;53.10;;;;;;7641495;22;80032;-57
2023/05/03 02:45:17;;;;;;;8.52;6.32;;;22.70;53.10;;;;;;7616053;22;80794;-58
2023/05/03 02:48:18;;;;;;;7.90;6.43;;;22.70;53.00;;;;;;7615381;22;83216;-58
2023/05/03 02:51:19;;;;;;;9.85;6.72;;;22.70;53.00;;;;;;7616880;22;83449;-57
2023/05/03 02:54:20;;;;;;;9.77;6.03;;;22.60;53.00;;;;;;7616941;22;83636;-59
2023/05/03 02:57:21;;;;;;;9.93;6.65;;;22.60;53.00;;;;;;7643240;22;80491;-59
2023/05/03 03:00:21;;;;;;;11.02;6.53;;;22.70;53.00;;;;;;7643484;22;80997;-58
2023/05/03 03:03:22;;;;;;;10.48;6.57;;;22.60;53.00;;;;;;7615861;22;81815;-61
2023/05/03 03:06:23;;;;;;;11.10;6.63;;;22.60;53.00;;;;;;7616044;22;83531;-58
2023/05/03 03:09:24;;;;;;;9.43;6.70;;;22.60;52.90;;;;;;7616529;22;83195;-59
2023/05/03 03:12:26;;;;;;;9.45;6.45;;;22.60;52.90;;;;;;7615652;22;82703;-58
2023/05/03 03:15:29;;;;;;;10.75;7.25;;;22.60;53.00;;;;;;7616665;22;82958;-59
2023/05/03 03:18:30;;;;;;;10.95;6.93;;;22.60;52.90;;;;;;7616018;22;82946;-58
2023/05/03 03:21:31;;;;;;;11.85;7.47;;;22.70;53.00;;;;;;7615887;22;83086;-61
2023/05/03 03:24:32;;;;;;;8.73;6.85;;;22.60;52.90;;;;;;7615967;22;82768;-58
2023/05/03 03:27:32;;;;;;;10.27;7.10;;;22.60;53.00;;;;;;7615534;22;83380;-58
2023/05/03 03:30:33;;;;;;;12.18;7.00;;;22.60;53.00;;;;;;7642442;22;80647;-57
2023/05/03 03:33:48;;;;;;;10.30;7.10;;;22.60;53.00;;;;;;7642548;22;80689;-59
2023/05/03 03:36:52;;;;;;;9.45;6.75;;;22.60;53.00;;;;;;7642985;22;81493;-65
2023/05/03 03:39:53;;;;;;;11.70;7.57;;;22.60;53.00;;;;;;7615964;22;83514;-67
2023/05/03 03:42:54;;;;;;;10.77;8.02;;;22.70;53.10;;;;;;7616724;22;82216;-67
2023/05/03 03:45:54;;;;;;;12.07;7.90;;;22.60;53.10;;;;;;7642976;22;80366;-66
2023/05/03 03:48:56;;;;;;;11.57;7.95;;;22.60;53.10;;;;;;7642179;22;81521;-67
2023/05/03 03:52:00;;;;;;;11.88;7.82;;;22.70;53.20;;;;;;7614988;22;83084;-68
2023/05/03 03:55:01;;;;;;;12.15;7.25;;;22.70;53.20;;;;;;7616539;22;82302;-57
2023/05/03 03:58:02;;;;;;;11.45;8.52;;;22.60;53.10;;;;;;7615485;22;83240;-61
2023/05/03 04:01:03;;;;;;;9.77;7.47;;;22.60;53.20;;;;;;7616411;22;81490;-59
2023/05/03 04:04:04;;;;;;;9.95;8.00;;;22.60;53.20;;;;;;7613195;22;82596;-59
2023/05/03 04:07:05;;;;;;;9.55;8.00;;;22.60;53.30;;;;;;7621659;22;81302;-59
2023/05/03 04:10:06;;;;;;;12.23;8.07;;;22.60;53.20;;;;;;7622715;22;81610;-58
2023/05/03 04:13:07;;;;;;;10.10;7.70;;;22.70;53.40;;;;;;7603432;22;82748;-65
2023/05/03 04:16:09;;;;;;;11.40;7.97;;;22.60;53.30;;;;;;7605193;22;82542;-65
2023/05/03 04:19:10;;;;;;;9.90;7.28;;;22.60;53.40;;;;;;7605191;22;82386;-65
2023/05/03 04:22:14;;;;;;;10.82;7.28;;;22.60;53.30;;;;;;7606113;22;83339;-65
2023/05/03 04:25:15;;;;;;;10.32;8.13;;;22.60;53.30;;;;;;7633506;22;81429;-66
2023/05/03 04:28:19;;;;;;;10.10;7.43;;;22.60;53.30;;;;;;7608342;22;81860;-65
2023/05/03 04:31:22;;;;;;;12.18;8.45;;;22.60;53.30;;;;;;7609578;22;81979;-64
2023/05/03 04:34:26;;;;;;;12.63;7.57;;;22.60;53.40;;;;;;7612894;22;86228;-64
2023/05/03 04:37:29;;;;;;;11.07;7.18;;;22.60;53.40;;;;;;7582000;23;81572;-66
2023/05/03 04:40:31;;;;;;;12.20;7.15;;;22.60;53.30;;;;;;7571575;23;81878;-71
2023/05/03 04:43:39;;;;;;;12.18;6.82;;;22.70;53.50;;;;;;7573511;23;83281;-70
2023/05/03 04:46:40;;;;;;;10.63;7.30;;;22.60;53.40;;;;;;7561255;23;82196;-72
2023/05/03 04:49:41;;;;;;;14.90;7.38;;;22.60;53.50;;;;;;7573967;23;83288;-67
2023/05/03 04:52:42;;;;;;;10.52;7.57;;;22.60;53.50;;;;;;7576837;23;82995;-63
2023/05/03 04:55:43;;;;;;;12.02;7.57;;;22.60;53.50;;;;;;7577533;23;83625;-60
2023/05/03 04:58:44;;;;;;;9.07;6.65;;;22.60;53.50;;;;;;7574545;23;83536;-61
2023/05/03 05:01:47;;;;;;;11.57;7.75;;;22.60;53.40;;;;;;7576965;23;82352;-61
2023/05/03 05:04:49;;;;;;;11.35;7.55;;;22.70;53.60;;;;;;7575375;23;83424;-65
2023/05/03 05:07:49;;;;;;;10.70;6.93;;;22.60;53.60;;;;;;7577100;23;83018;-60
2023/05/03 05:10:52;;;;;;;8.82;7.47;;;22.60;53.60;;;;;;7577015;23;83240;-59
2023/05/03 05:13:57;;;;;;;9.15;7.22;;;22.60;53.70;;;;;;7576832;23;82854;-62
2023/05/03 05:16:58;;;;;;;11.23;8.05;;;22.60;53.60;;;;;;7602956;23;80475;-62
2023/05/03 05:19:59;;;;;;;11.55;7.70;;;22.60;53.80;;;;;;7576973;23;82158;-61
2023/05/03 05:23:02;;;;;;;12.02;7.93;;;22.70;53.90;;;;;;7574966;23;81503;-61
2023/05/03 05:26:04;;;;;;;12.15;8.00;;;22.60;53.90;;;;;;7574837;23;84101;-74
2023/05/03 05:29:05;;;;;;;10.68;7.63;;;22.60;54.10;;;;;;7576625;23;83749;-85
2023/05/03 05:32:06;;;;;;;14.77;8.65;;;22.70;54.10;;;;;;7577237;23;81982;-71
2023/05/03 05:35:08;;;;;;;15.00;7.68;;;22.70;54.50;;;;;;7551914;23;82057;-71
2023/05/03 05:38:08;;;;;;;12.25;7.25;;;22.70;54.30;;;;;;7604190;23;80626;-66
2023/05/03 05:41:09;;;;;;;15.07;8.35;;;22.80;54.50;;;;;;7576414;23;83099;-62
2023/05/03 05:44:12;;;;;;;13.13;7.45;;;22.80;54.50;;;;;;7571903;23;82849;-58
2023/05/03 05:47:12;;;;;;;11.43;7.80;;;22.80;54.40;;;;;;7574188;23;82973;-58
2023/05/03 05:50:15;;;;;;;15.85;7.70;;;22.80;54.50;;;;;;7571429;23;83063;-60
2023/05/03 05:53:17;;;;;;;9.77;7.18;;;22.80;54.70;;;;;;7573031;23;80392;-60
2023/05/03 05:56:25;;;;;;;12.70;7.85;;;22.70;54.90;;;;;;7576952;23;83314;-59
2023/05/03 05:59:28;;;;;;;14.75;7.30;;;22.80;55.20;;;;;;7602560;23;80276;-59
2023/05/03 06:02:29;;;;;;;16.45;8.00;;;22.80;54.80;;;;;;7576812;23;81843;-60
2023/05/03 06:05:29;;;;;;;10.02;7.50;;;22.80;54.90;;;;;;7574458;23;83071;-59
2023/05/03 06:08:30;;;;;;;9.95;7.03;;;22.80;55.20;;;;;;7600770;23;80634;-58
2023/05/03 06:11:30;;;;;;;11.95;7.57;;;22.90;55.40;;;;;;7570044;23;81392;-59
2023/05/03 06:14:31;;;;;;;11.55;7.10;;;22.90;55.40;;;;;;7593651;23;80836;-59
2023/05/03 06:17:32;;;;;;;10.15;7.28;;;22.90;55.40;;;;;;7574725;23;83476;-59
2023/05/03 06:20:33;;;;;;;11.88;6.50;;;22.90;55.40;;;;;;7576034;23;82818;-60
2023/05/03 06:23:36;;;;;;;9.85;6.47;;;22.90;55.00;;;;;;7574720;23;82728;-61
2023/05/03 06:26:37;;;;;;;10.18;6.88;;;22.90;55.10;;;;;;7577401;23;83501;-61
2023/05/03 06:29:38;;;;;;;11.07;6.90;;;23.00;55.20;;;;;;7576931;23;82478;-63
2023/05/03 06:32:39;;;;;;;10.77;6.55;;;23.00;55.20;;;;;;7576933;23;82574;-63
2023/05/03 06:35:41;;;;;;;12.68;6.43;;;23.00;55.00;;;;;;7575974;23;82032;-62
2023/05/03 06:38:42;;;;;;;8.75;6.20;;;23.00;54.60;;;;;;7575386;23;83093;-64
2023/05/03 06:41:43;;;;;;;8.32;5.90;;;23.00;54.60;;;;;;7572766;23;81502;-61
2023/05/03 06:44:44;;;;;;;11.77;6.53;;;23.00;54.70;;;;;;7571329;23;83398;-61
2023/05/03 06:47:48;;;;;;;9.38;6.00;;;23.00;54.40;;;;;;7571009;23;83009;-61
2023/05/03 06:50:49;;;;;;;10.20;6.05;;;23.00;54.90;;;;;;7571478;23;82019;-64
2023/05/03 06:53:50;;;;;;;11.20;6.05;;;23.10;54.60;;;;;;7598266;23;81463;-62
2023/05/03 06:56:50;;;;;;;9.82;5.95;;;23.10;54.80;;;;;;7601010;23;80614;-62
2023/05/03 06:59:51;;;;;;;8.10;5.88;;;23.10;54.70;;;;;;7603169;23;80258;-66
2023/05/03 07:02:51;;;;;;;8.20;5.60;;;23.10;54.70;;;;;;7598652;23;80568;-67
2023/05/03 07:05:52;;;;;;;7.40;5.20;;;23.10;54.80;;;;;;7603730;23;81110;-65
2023/05/03 07:08:52;;;;;;;10.95;5.70;;;23.10;54.50;;;;;;7600626;23;80829;-66
2023/05/03 07:11:53;;;;;;;9.10;5.38;;;23.10;54.50;;;;;;7603003;23;81097;-61
2023/05/03 07:14:53;;;;;;;7.68;5.00;;;23.10;54.70;;;;;;7602262;23;80457;-67
2023/05/03 07:17:54;;;;;;;7.07;4.53;;;23.10;54.60;;;;;;7601935;23;81753;-63
2023/05/03 07:20:55;;;;;;;8.90;4.90;;;23.10;54.80;;;;;;7573072;23;83316;-64
2023/05/03 07:23:56;;;;;;;10.13;5.78;;;23.10;54.70;;;;;;7601727;23;80896;-64
2023/05/03 07:26:57;;;;;;;7.93;5.22;;;23.10;54.80;;;;;;7597992;23;80812;-66
2023/05/03 07:29:57;;;;;;;7.80;5.03;;;23.10;55.00;;;;;;7597089;23;81470;-64
2023/05/03 07:32:58;;;;;;;8.65;4.45;;;23.10;54.90;;;;;;7602049;23;80772;-62
2023/05/03 07:35:58;;;;;;;10.48;4.97;;;23.10;55.10;;;;;;7592439;23;81016;-66
2023/05/03 07:38:59;;;;;;;10.85;5.88;;;23.10;55.10;;;;;;7601398;23;80566;-64
2023/05/03 07:42:01;;;;;;;8.93;5.03;;;23.10;55.00;;;;;;7603334;23;80248;-64
2023/05/03 07:45:01;;;;;;;8.32;4.45;;;23.10;55.00;;;;;;7603245;23;80276;-62
2023/05/03 07:48:03;;;;;;;15.32;4.95;;;23.10;54.60;;;;;;7599509;23;81727;-65
2023/05/03 07:51:03;;;;;;;5.13;3.78;;;23.10;54.90;;;;;;7600574;23;81469;-66
2023/05/03 07:54:04;;;;;;;8.80;3.90;;;23.10;55.00;;;;;;7603486;23;80855;-67
2023/05/03 07:57:06;;;;;;;8.35;4.63;;;23.10;54.90;;;;;;7601705;23;80546;-61
2023/05/03 08:00:09;;;;;;;6.90;4.78;;;23.10;54.90;;;;;;7602020;23;80615;-66
2023/05/03 08:03:13;;;;;;;6.88;4.07;;;23.10;54.80;;;;;;7603562;23;80078;-61
2023/05/03 08:06:13;;;;;;;7.38;4.35;;;23.10;54.80;;;;;;7600685;23;80177;-64
2023/05/03 08:09:14;;;;;;;9.43;4.20;;;23.10;54.60;;;;;;7603237;23;80307;-65
2023/05/03 08:12:15;;;;;;;9.20;4.80;;;23.10;55.00;;;;;;7595838;23;80284;-66
2023/05/03 08:15:15;;;;;;;6.95;4.50;;;23.10;54.90;;;;;;7603043;23;80619;-64
2023/05/03 08:18:17;;;;;;;7.00;4.60;;;23.10;54.90;;;;;;7603902;23;80332;-65
2023/05/03 08:21:18;;;;;;;7.68;4.70;;;23.10;54.90;;;;;;7604354;23;80086;-65
2023/05/03 08:24:18;;;;;;;6.97;4.25;;;23.10;54.90;;;;;;7599304;23;80277;-64
2023/05/03 08:27:19;;;;;;;10.23;4.45;;;23.10;54.90;;;;;;7600063;23;80726;-65
2023/05/03 08:30:20;;;;;;;6.63;4.07;;;23.10;54.90;;;;;;7604424;23;80364;-64
2023/05/03 08:33:21;;;;;;;8.43;4.10;;;23.10;54.80;;;;;;7603479;23;81394;-61
2023/05/03 08:36:21;;;;;;;7.38;4.72;;;23.10;54.70;;;;;;7604045;23;81045;-64
2023/05/03 08:39:23;;;;;;;5.82;4.05;;;23.10;55.00;;;;;;7599294;23;81353;-66
2023/05/03 08:42:25;;;;;;;7.57;4.45;;;23.10;54.80;;;;;;7495216;23;81795;-63
2023/05/03 08:45:25;;;;;;;7.18;4.55;;;23.20;54.80;;;;;;7560522;23;81875;-65
2023/05/03 08:48:26;;;;;;;8.10;4.55;;;23.20;54.80;;;;;;7605599;23;81434;-67
2023/05/03 08:51:27;;;;;;;6.38;4.45;;;23.20;54.80;;;;;;7605525;23;80977;-67
2023/05/03 08:54:27;;;;;;;11.23;5.28;;;23.20;54.70;;;;;;7574797;23;81181;-67
2023/05/03 08:57:28;;;;;;;6.53;4.72;;;23.20;54.80;;;;;;7604727;23;80189;-67
2023/05/03 09:00:28;;;;;;;10.90;5.05;;;23.20;54.90;;;;;;7603384;23;81073;-66
2023/05/03 09:03:29;;;;;;;7.13;4.82;;;23.30;55.00;;;;;;7604936;23;80982;-65
2023/05/03 09:06:31;;;;;;;7.60;4.95;;;23.30;54.80;;;;;;7603916;23;80807;-67
2023/05/03 09:09:32;;;;;;;7.35;5.30;;;23.30;54.80;;;;;;7602156;23;81496;-66
2023/05/03 09:12:33;;;;;;;7.38;4.70;;;23.30;54.70;;;;;;7606252;23;80211;-68
2023/05/03 09:15:33;;;;;;;9.00;4.55;;;23.40;54.60;;;;;;7606488;23;80268;-67
2023/05/03 09:18:34;;;;;;;8.00;5.50;;;23.40;54.60;;;;;;7606242;23;80135;-67
2023/05/03 09:21:35;;;;;;;7.45;4.72;;;23.40;54.40;;;;;;7606721;23;80685;-67
2023/05/03 09:24:35;;;;;;;9.27;4.80;;;23.50;54.40;;;;;;7603128;23;80693;-64
2023/05/03 09:27:36;;;;;;;10.68;4.70;;;23.50;54.40;;;;;;7605852;23;80633;-70
2023/05/03 09:30:36;;;;;;;9.13;4.43;;;23.50;54.20;;;;;;7601867;23;80682;-63
2023/05/03 09:33:37;;;;;;;6.72;4.50;;;23.50;54.20;;;;;;7598612;23;81063;-65
2023/05/03 09:36:37;;;;;;;9.77;4.90;;;23.50;54.60;;;;;;7603921;23;80817;-65
2023/05/03 09:39:38;;;;;;;8.73;4.78;;;23.50;54.50;;;;;;7601803;23;80414;-63
2023/05/03 09:42:42;;;;;;;6.85;4.28;;;23.50;54.40;;;;;;7604958;23;80299;-63
2023/05/03 09:45:43;;;;;;;8.45;5.25;;;23.50;54.20;;;;;;7604777;23;80268;-66
2023/05/03 09:48:43;;;;;;;7.18;5.03;;;23.60;54.00;;;;;;7600597;23;81142;-67
2023/05/03 09:51:44;;;;;;;6.68;4.97;;;23.60;53.90;;;;;;7602958;23;80770;-66
2023/05/03 09:54:44;;;;;;;6.25;4.30;;;23.60;53.80;;;;;;7576801;23;80862;-65
2023/05/03 09:57:45;;;;;;;7.18;4.57;;;23.60;53.80;;;;;;7599545;23;81087;-65
2023/05/03 10:00:47;;;;;;;7.55;4.20;;;23.60;53.80;;;;;;7604042;23;80819;-65
2023/05/03 10:03:49;;;;;;;8.88;4.50;;;23.60;54.10;;;;;;7603220;23;80759;-74
2023/05/03 10:06:49;;;;;;;7.70;4.35;;;23.60;54.50;;;;;;7604897;23;80301;-70
2023/05/03 10:09:50;;;;;;;11.88;4.57;;;23.60;54.90;;;;;;7575290;23;82768;-66
2023/05/03 10:12:52;;;;;;;6.97;4.32;;;23.50;56.20;;;;;;7604878;23;80602;-63
2023/05/03 10:15:53;;;;;;;6.07;4.50;;;23.50;57.00;;;;;;7573386;23;82921;-69
2023/05/03 10:18:53;;;;;;;10.68;4.60;;;23.50;56.80;;;;;;7594843;23;80618;-68
2023/05/03 10:21:57;;;;;;;10.20;4.57;;;23.60;57.20;;;;;;7601307;23;80966;-69
2023/05/03 10:24:58;;;;;;;5.13;4.13;;;23.50;57.10;;;;;;7599797;23;80461;-70
2023/05/03 10:27:59;;;;;;;8.88;4.18;;;23.50;57.60;;;;;;7600754;23;80438;-69
2023/05/03 10:31:00;;;;;;;7.75;4.10;;;23.50;57.70;;;;;;7600136;23;80870;-70
2023/05/03 10:34:00;;;;;;;9.98;3.80;;;23.50;58.00;;;;;;7602658;23;81508;-68
2023/05/03 10:37:01;;;;;;;5.50;4.10;;;23.40;58.70;;;;;;7602026;22;81095;-69
2023/05/03 10:40:01;;;;;;;5.53;3.40;;;23.40;58.10;;;;;;7599807;23;81154;-68
2023/05/03 10:43:02;;;;;;;7.25;3.90;;;23.40;58.20;;;;;;7603790;23;80082;-65
2023/05/03 10:46:02;;;;;;;10.07;4.20;;;23.40;58.00;;;;;;7579639;23;81415;-66
2023/05/03 10:49:03;;;;;;;25.70;8.95;;;23.50;58.30;;;;;;7598010;23;80478;-69
2023/05/03 10:52:04;;;;;;;11.23;5.28;;;23.50;58.60;;;;;;7602740;23;80635;-67
2023/05/03 10:55:04;;;;;;;12.57;5.57;;;23.50;59.40;;;;;;7601086;23;80616;-68
2023/05/03 10:58:05;;;;;;;20.20;7.72;;;23.40;59.90;;;;;;7604169;23;80331;-62
2023/05/03 11:01:05;;;;;;;27.58;7.68;;;23.40;60.00;;;;;;7601076;23;81024;-62
2023/05/03 11:04:06;;;;;;;23.92;8.95;;;23.50;60.30;;;;;;7602315;23;80493;-61
2023/05/03 11:07:08;;;;;;;24.58;9.82;;;23.40;60.60;;;;;;7602912;23;81485;-62
2023/05/03 11:10:09;;;;;;;22.13;9.25;;;23.50;60.80;;;;;;7602758;23;81212;-60
2023/05/03 11:13:09;;;;;;;26.65;9.50;;;23.50;61.10;;;;;;7595003;23;81815;-62
2023/05/03 11:16:10;;;;;;;22.48;9.38;;;23.50;61.10;;;;;;7602827;23;80731;-62
2023/05/03 11:19:11;;;;;;;31.85;9.98;;;23.50;61.10;;;;;;7601375;23;81408;-61
2023/05/03 11:22:11;;;;;;;23.73;8.60;;;23.50;61.10;;;;;;7598547;23;83117;-60
2023/05/03 11:25:12;;;;;;;26.40;8.15;;;23.50;61.10;;;;;;7601939;23;82898;-61
2023/05/03 11:28:12;;;;;;;17.00;7.45;;;23.50;61.20;;;;;;7602652;23;80779;-61
2023/05/03 11:31:13;;;;;;;17.67;7.28;;;23.50;61.10;;;;;;7575097;23;81217;-62
2023/05/03 11:34:14;;;;;;;19.33;7.10;;;23.50;60.70;;;;;;7603267;23;80317;-65
2023/05/03 11:37:15;;;;;;;17.90;6.28;;;23.50;59.90;;;;;;7597058;23;81739;-70
2023/05/03 11:40:16;;;;;;;14.65;6.22;;;23.40;59.70;;;;;;7599679;23;81204;-72
2023/05/03 11:43:16;;;;;;;11.18;6.32;;;23.40;59.10;;;;;;7595821;23;80154;-76
2023/05/03 11:46:17;;;;;;;15.25;6.38;;;23.40;58.90;;;;;;7593251;23;80822;-69
2023/05/03 11:49:17;;;;;;;14.20;6.00;;;23.50;58.80;;;;;;7601061;23;80123;-71
2023/05/03 11:52:18;;;;;;;11.18;6.03;;;23.40;58.40;;;;;;7600381;23;81387;-74
2023/05/03 11:55:18;;;;;;;11.60;6.15;;;23.40;58.30;;;;;;7602259;23;79873;-73
2023/05/03 11:58:19;;;;;;;9.65;5.80;;;23.40;58.40;;;;;;7600703;23;80336;-75
2023/05/03 12:01:22;;;;;;;14.25;5.93;;;23.40;58.40;;;;;;7597189;23;80796;-74
2023/05/03 12:04:23;;;;;;;10.98;5.78;;;23.40;58.50;;;;;;7600627;23;80635;-67
2023/05/03 12:07:23;;;;;;;12.25;6.53;;;23.40;58.30;;;;;;7598667;23;80164;-66
2023/05/03 12:10:25;;;;;;;14.38;5.90;;;23.40;58.20;;;;;;7601336;23;85502;-62
2023/05/03 12:13:26;;;;;;;9.35;5.53;;;23.40;58.30;;;;;;7600937;23;80898;-62
2023/05/03 12:16:26;;;;;;;12.10;6.47;;;23.40;58.30;;;;;;7599367;23;80114;-66
2023/05/03 12:19:27;;;;;;;9.73;6.03;;;23.30;58.00;;;;;;7601035;23;81291;-66
2023/05/03 12:22:27;;;;;;;8.55;5.60;;;23.40;57.80;;;;;;7571903;23;82320;-62
2023/05/03 12:25:28;;;;;;;8.43;5.38;;;23.40;57.50;;;;;;7586037;23;80348;-61
2023/05/03 12:28:28;;;;;;;9.02;5.22;;;23.30;57.70;;;;;;7575729;23;81922;-69
2023/05/03 12:31:29;;;;;;;10.45;5.85;;;23.30;57.50;;;;;;7595315;23;80969;-69
2023/05/03 12:34:29;;;;;;;8.32;5.43;;;23.40;57.60;;;;;;7570398;23;80729;-66
2023/05/03 12:37:30;;;;;;;6.65;4.75;;;23.40;57.20;;;;;;7603858;23;80813;-71
2023/05/03 12:40:30;;;;;;;8.15;4.88;;;23.40;57.20;;;;;;7602155;23;80722;-68
2023/05/03 12:43:31;;;;;;;5.95;4.80;;;23.40;57.00;;;;;;7603490;23;81488;-73
2023/05/03 12:46:31;;;;;;;10.75;4.38;;;23.40;56.70;;;;;;7601281;23;80302;-77
2023/05/03 12:49:32;;;;;;;9.48;4.63;;;23.40;56.70;;;;;;7599108;23;81354;-72
2023/05/03 12:52:33;;;;;;;8.75;4.55;;;23.40;56.40;;;;;;7597429;23;80662;-70
2023/05/03 12:55:34;;;;;;;10.38;4.80;;;23.40;56.60;;;;;;7603374;23;80386;-76
2023/05/03 12:58:34;;;;;;;8.85;4.35;;;23.40;56.50;;;;;;7594202;23;80375;-72
2023/05/03 13:01:35;;;;;;;6.97;4.55;;;23.50;56.40;;;;;;7591226;23;80808;-68
2023/05/03 13:04:35;;;;;;;10.43;4.60;;;23.50;56.40;;;;;;7594463;23;80571;-70
2023/05/03 13:07:36;;;;;;;10.55;4.55;;;23.50;56.50;;;;;;7574207;23;81649;-69
2023/05/03 13:10:37;;;;;;;10.55;4.63;;;23.50;56.70;;;;;;7601639;23;80547;-69
2023/05/03 13:13:38;;;;;;;9.38;5.13;;;23.50;56.50;;;;;;7596833;23;81056;-70
2023/05/03 13:16:40;;;;;;;9.32;5.07;;;23.50;56.40;;;;;;7597529;23;80870;-73
2023/05/03 13:19:40;;;;;;;6.45;4.22;;;23.40;56.30;;;;;;7592687;23;80191;-64
2023/05/03 13:22:41;;;;;;;10.15;4.03;;;23.40;56.20;;;;;;7604978;23;80877;-64
2023/05/03 13:25:42;;;;;;;6.00;3.63;;;23.50;56.50;;;;;;7601099;23;81140;-59
2023/05/03 13:28:42;;;;;;;6.72;4.18;;;23.50;56.20;;;;;;7602197;23;81469;-64
2023/05/03 13:31:43;;;;;;;8.80;4.93;;;23.40;56.40;;;;;;7605142;23;80389;-62
2023/05/03 13:34:43;;;;;;;10.07;4.35;;;23.40;55.70;;;;;;7598586;23;81206;-61
2023/05/03 13:37:44;;;;;;;10.13;4.78;;;23.40;55.50;;;;;;7601723;23;80878;-62
2023/05/03 13:40:45;;;;;;;8.30;4.40;;;23.40;55.80;;;;;;7603065;23;80091;-61
2023/05/03 13:43:45;;;;;;;8.90;4.57;;;23.40;55.50;;;;;;7603266;23;81069;-61
2023/05/03 13:46:46;;;;;;;6.80;4.05;;;23.40;55.10;;;;;;7576414;23;80303;-60
2023/05/03 13:49:46;;;;;;;8.93;4.20;;;23.40;54.40;;;;;;7599630;23;81730;-59
2023/05/03 13:52:47;;;;;;;7.63;4.60;;;23.40;54.40;;;;;;7605119;23;80904;-59
2023/05/03 13:55:47;;;;;;;6.90;4.00;;;23.40;54.80;;;;;;7602158;23;80842;-59
2023/05/03 13:58:48;;;;;;;7.50;4.20;;;23.40;54.50;;;;;;7603684;23;80890;-60
2023/05/03 14:01:49;;;;;;;7.03;3.80;;;23.40;54.40;;;;;;7606844;23;80745;-76
2023/05/03 14:04:51;;;;;;;6.03;4.00;;;23.40;54.30;;;;;;7601924;23;80320;-72
2023/05/03 14:07:52;;;;;;;4.72;3.80;;;23.40;54.30;;;;;;7605624;23;80489;-74
2023/05/03 14:10:53;;;;;;;4.70;3.65;;;23.50;54.30;;;;;;7605126;23;80177;-82
2023/05/03 14:13:53;;;;;;;4.80;3.63;;;23.50;54.30;;;;;;7608725;23;80835;-79
2023/05/03 14:16:54;;;;;;;9.90;4.15;;;23.50;54.30;;;;;;7599449;23;81075;-74
2023/05/03 14:19:54;;;;;;;8.02;4.13;;;23.50;54.10;;;;;;7606272;23;80345;-73
2023/05/03 14:22:55;;;;;;;5.80;3.67;;;23.50;54.10;;;;;;7602207;23;80363;-66
2023/05/03 14:25:56;;;;;;;5.15;3.83;;;23.50;54.40;;;;;;7599883;23;80639;-67
2023/05/03 14:28:56;;;;;;;5.13;4.07;;;23.50;54.10;;;;;;7600085;23;80254;-72
2023/05/03 14:31:57;;;;;;;5.75;3.85;;;23.50;54.70;;;;;;7595765;23;80886;-69
2023/05/03 14:34:58;;;;;;;6.07;3.83;;;23.50;54.80;;;;;;7600995;22;80741;-75
2023/05/03 14:37:59;;;;;;;6.10;3.45;;;23.60;54.60;;;;;;7574340;23;87249;-59
2023/05/03 14:40:59;;;;;;;6.95;3.78;;;23.60;55.00;;;;;;7602178;23;80986;-59
2023/05/03 14:44:00;;;;;;;7.28;4.07;;;23.60;55.20;;;;;;7603609;23;80882;-60
2023/05/03 14:47:02;;;;;;;6.40;4.05;;;23.60;55.30;;;;;;7600237;23;80364;-61
2023/05/03 14:50:02;;;;;;;5.15;3.88;;;23.60;55.90;;;;;;7601454;23;80269;-60
2023/05/03 14:53:03;;;;;;;8.18;3.63;;;23.60;55.20;;;;;;7598411;23;82180;-61
2023/05/03 14:56:03;;;;;;;6.05;4.10;;;23.50;55.50;;;;;;7599996;23;80453;-67
2023/05/03 14:59:04;;;;;;;4.50;3.63;;;23.60;55.70;;;;;;7598530;23;81820;-79
2023/05/03 15:02:04;;;;;;;5.03;3.58;;;23.60;55.90;;;;;;7574171;23;80587;-72
2023/05/03 15:05:06;;;;;;;6.65;3.90;;;23.60;55.70;;;;;;7596821;23;81501;-67
2023/05/03 15:08:06;;;;;;;5.43;3.92;;;23.60;55.70;;;;;;7602449;23;80983;-69
2023/05/03 15:11:07;;;;;;;5.32;3.60;;;23.60;55.70;;;;;;7599939;23;80482;-78
2023/05/03 15:14:08;;;;;;;5.00;3.90;;;23.60;55.70;;;;;;7573793;23;80875;-69
2023/05/03 15:17:08;;;;;;;10.98;4.43;;;23.60;56.30;;;;;;7599634;23;80807;-66
2023/05/03 15:20:09;;;;;;;4.55;3.58;;;23.60;55.70;;;;;;7597438;23;80647;-71
2023/05/03 15:23:09;;;;;;;9.90;3.85;;;23.70;55.80;;;;;;7600132;23;80241;-72
2023/05/03 15:26:10;;;;;;;6.53;3.80;;;23.70;55.80;;;;;;7598252;23;80764;-67
2023/05/03 15:29:11;;;;;;;6.10;4.07;;;23.70;56.00;;;;;;7590904;23;80419;-71
2023/05/03 15:32:11;;;;;;;6.22;4.35;;;23.70;55.90;;;;;;7600731;23;80461;-65
2023/05/03 15:35:12;;;;;;;10.00;4.70;;;23.70;55.80;;;;;;7599307;22;80324;-73
2023/05/03 15:38:13;;;;;;;5.85;3.75;;;23.70;55.80;;;;;;7604110;23;80147;-65